Weather at Thessaloniki Macedonia International Airport

Public forecast

Using degrees Celsius for public forecast. Weather courtesy of forecast.io.

Current aviation weather report (METAR) for Thessaloniki Macedonia International Airport

Report is more than 6 hours old.

2022/11/14 15:20 (retrieved 2 years ago)

LGTS 141520Z 18003KT 9999 FEW025 16/11 Q1024 NOSIG

Aviation forecast (TAF) for Thessaloniki Macedonia International Airport

Forecast is more than 12 hours old.

2023/02/22 18:13 (retrieved 1 year ago)

TAF LGTS 221700Z 2218/2318 VRB03KT CAVOK PROB30 2304/2308 5000 BR SCT008 BECMG 2316/2318 14013KT 9999 FEW010 SCT025